Time;durP1;ratioP1;P1;durP2;ratioP2;P2;SDS_P1;SDS_P2;PMS_P1;PMS_P2;Temp;Humidity;BMP_temperature;BMP_pressure;BME280_temperature;BME280_humidity;BME280_pressure;Samples;Min_cycle;Max_cycle;Signal;HPM_P1;HPM_P2
2021/06/28 00:01:36;;;;;;;3.72;1.10;;;15.50;99.90;;;;;;5090678;28;20210;-79
2021/06/28 00:04:04;;;;;;;1.40;0.98;;;15.60;99.90;;;;;;5089135;28;20203;-73
2021/06/28 00:06:31;;;;;;;1.35;1.10;;;15.60;99.90;;;;;;5090095;28;20205;-76
2021/06/28 00:08:58;;;;;;;1.23;0.93;;;15.60;99.90;;;;;;5085712;28;20221;-74
2021/06/28 00:11:26;;;;;;;1.00;0.98;;;15.70;99.90;;;;;;5089485;28;20692;-75
2021/06/28 00:13:54;;;;;;;1.42;0.85;;;15.70;99.90;;;;;;5089844;28;20301;-76
2021/06/28 00:16:24;;;;;;;1.45;1.35;;;15.70;99.90;;;;;;5089735;28;20208;-73
2021/06/28 00:18:51;;;;;;;1.10;1.10;;;15.70;99.90;;;;;;5087476;28;20299;-77
2021/06/28 00:21:19;;;;;;;0.93;0.93;;;15.70;99.90;;;;;;5089807;28;20254;-73
2021/06/28 00:23:46;;;;;;;1.88;1.15;;;15.70;99.90;;;;;;5091242;28;20255;-73
2021/06/28 00:26:13;;;;;;;1.48;1.38;;;15.60;99.90;;;;;;5088788;28;20254;-72
2021/06/28 00:28:41;;;;;;;1.30;1.20;;;15.60;99.90;;;;;;5088671;28;20251;-72
2021/06/28 00:31:09;;;;;;;1.50;1.40;;;15.70;99.90;;;;;;5090213;28;20205;-73
2021/06/28 00:33:36;;;;;;;1.42;1.20;;;15.80;99.90;;;;;;5087993;28;20244;-73
2021/06/28 00:36:03;;;;;;;1.52;1.40;;;15.60;99.90;;;;;;5087989;28;20316;-72
2021/06/28 00:38:30;;;;;;;2.13;1.35;;;15.60;99.90;;;;;;5088701;28;20234;-75
2021/06/28 00:40:58;;;;;;;0.93;0.93;;;15.60;99.90;;;;;;5089182;28;20236;-76
2021/06/28 00:43:25;;;;;;;1.50;1.40;;;15.60;99.90;;;;;;5088387;28;20626;-72
2021/06/28 00:45:53;;;;;;;1.77;1.45;;;15.60;99.90;;;;;;5091790;28;20246;-72
2021/06/28 00:48:20;;;;;;;1.60;1.50;;;15.60;99.90;;;;;;5093098;28;20213;-78
2021/06/28 00:50:49;;;;;;;1.73;1.50;;;15.70;99.90;;;;;;5092714;28;20206;-77
2021/06/28 00:53:19;;;;;;;0.93;0.93;;;15.80;99.90;;;;;;5092962;28;20213;-78
2021/06/28 00:55:46;;;;;;;1.88;1.40;;;15.70;99.90;;;;;;5089867;28;20213;-81
2021/06/28 00:58:14;;;;;;;1.63;1.52;;;15.70;99.90;;;;;;5092505;28;20201;-70
2021/06/28 01:00:42;;;;;;;2.42;1.67;;;15.60;99.90;;;;;;5091565;28;20225;-71
2021/06/28 01:03:11;;;;;;;1.23;1.02;;;15.40;99.90;;;;;;5090969;28;20628;-77
2021/06/28 01:05:40;;;;;;;1.60;1.50;;;15.40;99.90;;;;;;5092782;28;20205;-72
2021/06/28 01:08:07;;;;;;;2.92;1.80;;;15.30;99.90;;;;;;5092040;28;20254;-75
2021/06/28 01:10:37;;;;;;;2.17;1.60;;;15.30;99.90;;;;;;5092354;28;20661;-79
2021/06/28 01:13:05;;;;;;;2.00;1.90;;;15.30;99.90;;;;;;5093101;28;20245;-77
2021/06/28 01:15:32;;;;;;;2.10;1.55;;;15.40;99.90;;;;;;5089617;28;20228;-69
2021/06/28 01:18:00;;;;;;;1.83;1.73;;;15.30;99.90;;;;;;5093102;28;20218;-74
2021/06/28 01:20:30;;;;;;;5.03;2.50;;;15.30;99.90;;;;;;5096550;28;20720;-77
2021/06/28 01:22:59;;;;;;;3.33;1.73;;;15.40;99.90;;;;;;5083357;28;20212;-77
2021/06/28 01:25:29;;;;;;;4.03;1.58;;;15.30;99.90;;;;;;5092355;28;20201;-80
2021/06/28 01:27:56;;;;;;;1.92;1.83;;;15.20;99.90;;;;;;5092684;28;20288;-80
2021/06/28 01:30:26;;;;;;;3.55;1.33;;;15.30;99.90;;;;;;5092885;28;20297;-80
2021/06/28 01:32:54;;;;;;;1.98;1.77;;;15.20;99.90;;;;;;5092361;28;20213;-76
2021/06/28 01:35:21;;;;;;;3.63;1.42;;;15.30;99.90;;;;;;5091432;28;20255;-76
2021/06/28 01:37:48;;;;;;;2.85;1.83;;;15.40;99.90;;;;;;5092564;28;20258;-72
2021/06/28 01:40:17;;;;;;;1.55;1.45;;;15.30;99.90;;;;;;5091253;28;20278;-77
2021/06/28 01:42:47;;;;;;;2.05;1.85;;;15.20;99.90;;;;;;5092453;28;20209;-77
2021/06/28 01:45:17;;;;;;;3.67;1.83;;;15.30;99.90;;;;;;5092204;28;20246;-78
2021/06/28 01:47:45;;;;;;;1.77;1.67;;;15.30;99.90;;;;;;5092752;28;20205;-73
2021/06/28 01:50:14;;;;;;;3.03;1.67;;;15.30;99.90;;;;;;5094631;28;20201;-76
2021/06/28 01:52:42;;;;;;;2.17;1.88;;;15.30;99.90;;;;;;5087232;28;20206;-75
2021/06/28 01:55:11;;;;;;;2.30;2.20;;;15.20;99.90;;;;;;5091871;28;20254;-72
2021/06/28 01:57:42;;;;;;;1.85;1.75;;;15.10;99.90;;;;;;5105359;28;20209;-73
2021/06/28 02:00:13;;;;;;;2.85;2.13;;;15.10;99.90;;;;;;5091138;28;20225;-72
2021/06/28 02:02:41;;;;;;;2.17;1.85;;;15.10;99.90;;;;;;5090874;28;20197;-79
2021/06/28 02:05:09;;;;;;;1.27;1.17;;;15.20;99.90;;;;;;5083733;28;20202;-73
2021/06/28 02:07:36;;;;;;;4.05;1.52;;;15.20;99.90;;;;;;5090812;28;20258;-76
2021/06/28 02:10:05;;;;;;;4.10;1.92;;;15.10;99.90;;;;;;5089734;28;20761;-77
2021/06/28 02:12:32;;;;;;;1.83;1.70;;;15.20;99.90;;;;;;5092333;28;20259;-77
2021/06/28 02:14:59;;;;;;;2.47;2.28;;;15.10;99.90;;;;;;5089771;28;20251;-77
2021/06/28 02:17:27;;;;;;;2.90;2.15;;;15.10;99.90;;;;;;5091614;28;20201;-78
2021/06/28 02:19:54;;;;;;;2.25;1.95;;;15.20;99.90;;;;;;5090863;28;20274;-80
2021/06/28 02:22:21;;;;;;;1.98;1.70;;;15.30;99.90;;;;;;5090977;28;20255;-82
2021/06/28 02:24:48;;;;;;;1.73;1.63;;;15.10;99.90;;;;;;5089460;28;20202;-76
2021/06/28 02:27:15;;;;;;;3.35;2.30;;;15.10;99.90;;;;;;5089284;28;20202;-80
2021/06/28 02:29:42;;;;;;;1.95;1.30;;;15.20;99.90;;;;;;5090439;28;20246;-76
2021/06/28 02:32:09;;;;;;;2.60;2.10;;;15.10;99.90;;;;;;5090381;28;20251;-76
2021/06/28 02:34:37;;;;;;;2.28;2.17;;;15.10;99.90;;;;;;5089708;28;20205;-78
2021/06/28 02:37:05;;;;;;;2.85;2.45;;;15.10;99.90;;;;;;5089851;28;20213;-75
2021/06/28 02:39:32;;;;;;;2.50;2.10;;;15.10;99.90;;;;;;5089623;28;20669;-76
2021/06/28 02:41:59;;;;;;;3.47;1.85;;;15.20;99.90;;;;;;5091150;28;20241;-75
2021/06/28 02:44:26;;;;;;;3.70;2.60;;;15.20;99.90;;;;;;5089216;28;20266;-76
2021/06/28 02:46:52;;;;;;;2.15;1.95;;;15.20;99.90;;;;;;5090772;28;20680;-74
2021/06/28 02:49:19;;;;;;;2.08;1.88;;;15.20;99.90;;;;;;5091449;28;20239;-78
2021/06/28 02:51:48;;;;;;;2.25;1.95;;;15.10;99.90;;;;;;5091178;28;20213;-77
2021/06/28 02:54:15;;;;;;;2.88;2.10;;;15.30;99.90;;;;;;5089078;28;20201;-80
2021/06/28 02:56:42;;;;;;;1.90;1.80;;;15.20;99.90;;;;;;5088623;28;20278;-79
2021/06/28 02:59:11;;;;;;;2.15;1.95;;;15.20;99.90;;;;;;5089132;28;20274;-77
2021/06/28 03:01:38;;;;;;;2.88;2.67;;;15.20;99.90;;;;;;5080195;28;20229;-77
2021/06/28 03:04:05;;;;;;;2.47;1.88;;;15.10;99.90;;;;;;5090459;28;20229;-77
2021/06/28 03:06:32;;;;;;;2.22;2.03;;;15.10;99.90;;;;;;5090824;28;20315;-74
2021/06/28 03:09:01;;;;;;;3.53;2.70;;;15.20;99.90;;;;;;5089438;28;20705;-77
2021/06/28 03:11:28;;;;;;;2.42;2.30;;;15.20;99.90;;;;;;5088813;28;20209;-79
2021/06/28 03:13:55;;;;;;;2.15;2.05;;;15.20;99.90;;;;;;5088794;28;20577;-75
2021/06/28 03:16:22;;;;;;;3.63;2.72;;;15.10;99.90;;;;;;5090799;28;20214;-75
2021/06/28 03:18:49;;;;;;;2.17;2.00;;;15.10;99.90;;;;;;5090649;28;20745;-72
2021/06/28 03:21:16;;;;;;;2.30;2.15;;;15.20;99.90;;;;;;5091175;28;20236;-77
2021/06/28 03:23:45;;;;;;;2.00;1.90;;;15.20;99.90;;;;;;5090425;28;20201;-73
2021/06/28 03:26:14;;;;;;;2.92;2.25;;;15.20;99.90;;;;;;5090283;28;20205;-77
2021/06/28 03:28:41;;;;;;;2.78;2.47;;;15.10;99.90;;;;;;5091225;28;20210;-72
2021/06/28 03:31:09;;;;;;;5.95;2.83;;;15.10;99.90;;;;;;5090209;28;20271;-73
2021/06/28 03:33:36;;;;;;;4.03;2.42;;;15.10;99.90;;;;;;5088259;28;20243;-77
2021/06/28 03:36:04;;;;;;;2.55;2.35;;;15.10;99.90;;;;;;5090096;28;20215;-77
2021/06/28 03:38:31;;;;;;;3.42;2.60;;;15.00;99.90;;;;;;5090609;28;20251;-74
2021/06/28 03:40:58;;;;;;;2.72;2.30;;;15.00;99.90;;;;;;5088708;28;20232;-78
2021/06/28 03:43:26;;;;;;;1.80;1.70;;;15.00;99.90;;;;;;5089796;28;20205;-73
2021/06/28 03:45:53;;;;;;;3.40;2.38;;;15.00;99.90;;;;;;5088619;28;20226;-73
2021/06/28 03:48:20;;;;;;;4.00;2.60;;;15.00;99.90;;;;;;5090640;28;20201;-73
2021/06/28 03:50:48;;;;;;;2.67;1.67;;;14.90;99.90;;;;;;5088921;28;20278;-77
2021/06/28 03:53:15;;;;;;;2.53;2.33;;;14.90;99.90;;;;;;5090542;28;20241;-72
2021/06/28 03:55:42;;;;;;;2.35;2.13;;;14.90;99.90;;;;;;5089842;28;20210;-72
2021/06/28 03:58:09;;;;;;;2.05;1.90;;;14.90;99.90;;;;;;5089940;28;20202;-75
2021/06/28 04:00:39;;;;;;;2.92;2.53;;;14.90;99.90;;;;;;5090664;28;20244;-75
2021/06/28 04:03:07;;;;;;;4.45;2.45;;;14.70;99.90;;;;;;5090458;28;20201;-71
2021/06/28 04:05:34;;;;;;;2.42;1.95;;;14.80;99.90;;;;;;5090928;28;20212;-72
2021/06/28 04:08:01;;;;;;;2.08;1.88;;;14.80;99.90;;;;;;5089792;28;20635;-75
2021/06/28 04:10:28;;;;;;;2.10;2.00;;;14.70;99.90;;;;;;5090555;28;20515;-76
2021/06/28 04:12:56;;;;;;;2.40;2.03;;;14.70;99.90;;;;;;5090021;28;20209;-72
2021/06/28 04:15:25;;;;;;;3.35;3.03;;;14.70;99.90;;;;;;5090666;28;20205;-72
2021/06/28 04:17:55;;;;;;;2.30;2.10;;;14.70;99.90;;;;;;5089938;28;20209;-74
2021/06/28 04:20:25;;;;;;;3.58;1.83;;;14.90;99.90;;;;;;5092117;28;20263;-76
2021/06/28 04:22:53;;;;;;;2.83;2.38;;;14.80;99.90;;;;;;5094087;28;20209;-72
2021/06/28 04:25:22;;;;;;;2.03;1.92;;;14.80;99.90;;;;;;5094411;28;20205;-71
2021/06/28 04:27:50;;;;;;;2.00;1.80;;;14.80;99.90;;;;;;5093739;28;20201;-76
2021/06/28 04:30:19;;;;;;;2.40;2.20;;;14.80;99.90;;;;;;5094086;28;20197;-76
2021/06/28 04:32:47;;;;;;;2.97;2.35;;;14.80;99.90;;;;;;5093836;28;20205;-77
2021/06/28 04:35:17;;;;;;;2.83;2.10;;;14.70;99.90;;;;;;5094253;28;20210;-77
2021/06/28 04:37:45;;;;;;;3.33;2.33;;;14.70;99.90;;;;;;5094304;28;20283;-76
2021/06/28 04:40:14;;;;;;;3.03;2.40;;;14.60;99.90;;;;;;5093201;28;20202;-72
2021/06/28 04:42:42;;;;;;;3.92;2.35;;;14.60;99.90;;;;;;5093408;28;20251;-74
2021/06/28 04:45:12;;;;;;;2.95;2.60;;;14.70;99.90;;;;;;5086335;28;20733;-73
2021/06/28 04:47:39;;;;;;;7.35;2.60;;;14.80;99.90;;;;;;5093203;28;20636;-72
2021/06/28 04:50:07;;;;;;;4.25;2.50;;;14.70;99.90;;;;;;5094040;28;20296;-74
2021/06/28 04:52:37;;;;;;;2.53;2.22;;;14.60;99.90;;;;;;5093882;28;20210;-74
2021/06/28 04:55:07;;;;;;;2.75;2.53;;;14.60;99.90;;;;;;5093509;28;20209;-76
2021/06/28 04:57:34;;;;;;;3.05;2.60;;;14.60;99.90;;;;;;5093106;28;20208;-76
2021/06/28 05:00:01;;;;;;;3.95;2.05;;;14.80;99.90;;;;;;5093240;28;20611;-76
2021/06/28 05:02:28;;;;;;;5.22;2.50;;;14.90;99.90;;;;;;5093064;28;20241;-77
2021/06/28 05:04:55;;;;;;;2.13;2.03;;;14.90;99.90;;;;;;5092998;28;20205;-76
2021/06/28 05:07:22;;;;;;;6.13;2.85;;;15.00;99.90;;;;;;5093841;28;20258;-76
2021/06/28 05:09:51;;;;;;;4.22;2.20;;;15.00;99.90;;;;;;5092725;28;20260;-72
2021/06/28 05:12:18;;;;;;;4.70;2.05;;;14.90;99.90;;;;;;5092992;28;20221;-75
2021/06/28 05:14:45;;;;;;;2.40;2.20;;;14.90;99.90;;;;;;5092930;28;20205;-76
2021/06/28 05:17:12;;;;;;;2.60;2.40;;;14.90;99.90;;;;;;5093723;28;20294;-75
2021/06/28 05:19:39;;;;;;;4.35;2.30;;;14.80;99.90;;;;;;5093310;28;20206;-76
2021/06/28 05:22:07;;;;;;;3.75;2.10;;;14.80;99.90;;;;;;5093883;28;20237;-76
2021/06/28 05:24:34;;;;;;;5.03;2.80;;;14.80;99.90;;;;;;5093767;28;20607;-76
2021/06/28 05:27:03;;;;;;;4.57;2.67;;;14.80;99.90;;;;;;5091893;28;20212;-75
2021/06/28 05:29:30;;;;;;;3.28;2.38;;;14.80;99.90;;;;;;5093155;28;20259;-75
2021/06/28 05:31:57;;;;;;;2.22;1.98;;;14.90;99.90;;;;;;5091957;28;20264;-76
2021/06/28 05:34:24;;;;;;;4.30;2.67;;;15.00;99.90;;;;;;5092877;28;20610;-75
2021/06/28 05:36:51;;;;;;;2.88;2.67;;;15.10;99.90;;;;;;5092231;28;20266;-76
2021/06/28 05:39:18;;;;;;;2.88;2.67;;;15.10;99.90;;;;;;5092724;28;20209;-76
2021/06/28 05:41:45;;;;;;;3.03;2.70;;;15.10;99.90;;;;;;5091954;28;20237;-77
2021/06/28 05:44:14;;;;;;;6.22;3.33;;;15.40;99.90;;;;;;5092866;28;20259;-77
2021/06/28 05:46:41;;;;;;;2.75;2.55;;;15.70;99.90;;;;;;5092137;28;20201;-70
2021/06/28 05:49:08;;;;;;;2.42;2.13;;;16.00;99.90;;;;;;5092156;28;20213;-70
2021/06/28 05:51:35;;;;;;;1.85;1.75;;;16.20;99.90;;;;;;5091862;28;20258;-76
2021/06/28 05:54:02;;;;;;;2.42;2.28;;;16.40;99.90;;;;;;5091320;28;20255;-76
2021/06/28 05:56:29;;;;;;;3.20;2.05;;;16.60;99.90;;;;;;5092550;28;20202;-74
2021/06/28 05:58:56;;;;;;;2.03;1.90;;;16.50;99.90;;;;;;5091872;28;20216;-75
2021/06/28 06:01:25;;;;;;;2.80;2.60;;;16.40;99.90;;;;;;5092464;28;20229;-77
2021/06/28 06:03:52;;;;;;;4.13;2.45;;;16.70;99.90;;;;;;5091546;28;20247;-78
2021/06/28 06:06:19;;;;;;;2.63;2.42;;;17.00;99.90;;;;;;5090837;28;20739;-76
2021/06/28 06:08:46;;;;;;;1.90;1.80;;;17.00;99.90;;;;;;5090595;28;20213;-76
2021/06/28 06:11:13;;;;;;;2.03;1.83;;;17.20;99.90;;;;;;5090944;28;20209;-78
2021/06/28 06:13:40;;;;;;;2.10;1.80;;;17.10;99.90;;;;;;5091855;28;20209;-77
2021/06/28 06:16:07;;;;;;;4.22;2.13;;;16.70;99.90;;;;;;5091443;28;20271;-76
2021/06/28 06:18:36;;;;;;;5.68;2.05;;;16.60;99.90;;;;;;5090013;28;20684;-77
2021/06/28 06:21:03;;;;;;;2.42;2.22;;;16.70;99.90;;;;;;5090862;28;20562;-78
2021/06/28 06:23:32;;;;;;;3.67;1.90;;;16.70;99.90;;;;;;5088422;28;20210;-76
2021/06/28 06:25:59;;;;;;;4.57;2.17;;;16.80;99.90;;;;;;5088487;28;20205;-78
2021/06/28 06:28:26;;;;;;;8.02;2.45;;;16.90;99.90;;;;;;5090705;28;20202;-78
2021/06/28 06:30:53;;;;;;;1.80;1.70;;;17.00;99.90;;;;;;5091249;28;20692;-79
2021/06/28 06:33:21;;;;;;;1.70;1.58;;;17.10;99.90;;;;;;5091481;28;20202;-79
2021/06/28 06:35:50;;;;;;;1.50;1.40;;;17.10;99.90;;;;;;5097714;28;20209;-77
2021/06/28 06:38:17;;;;;;;1.52;1.42;;;17.10;99.90;;;;;;5087673;28;20213;-79
2021/06/28 06:40:48;;;;;;;1.58;1.25;;;17.20;99.90;;;;;;5090418;28;20205;-79
2021/06/28 06:43:15;;;;;;;2.40;2.20;;;17.30;99.90;;;;;;5094727;28;20687;-84
2021/06/28 06:45:43;;;;;;;2.33;1.58;;;17.30;99.90;;;;;;5085052;28;20205;-73
2021/06/28 06:48:10;;;;;;;2.42;1.80;;;17.50;99.90;;;;;;5089978;28;21013;-80
2021/06/28 06:50:37;;;;;;;1.95;1.60;;;17.90;99.90;;;;;;5089362;28;20206;-73
2021/06/28 06:53:06;;;;;;;1.95;1.60;;;17.80;99.90;;;;;;5090009;28;20672;-79
2021/06/28 06:55:34;;;;;;;2.05;1.85;;;17.50;99.90;;;;;;5091326;28;20212;-76
2021/06/28 06:58:01;;;;;;;2.40;2.20;;;17.10;99.90;;;;;;5089471;28;20758;-69
2021/06/28 07:00:28;;;;;;;1.80;1.70;;;17.10;99.90;;;;;;5091290;28;20214;-78
2021/06/28 07:02:55;;;;;;;2.83;2.53;;;17.10;99.90;;;;;;5089789;28;20229;-79
2021/06/28 07:05:22;;;;;;;2.88;2.35;;;17.00;99.90;;;;;;5091385;28;20209;-79
2021/06/28 07:07:49;;;;;;;2.17;1.95;;;17.00;99.90;;;;;;5090684;28;20209;-80
2021/06/28 07:10:18;;;;;;;1.80;1.65;;;17.10;99.90;;;;;;5093383;28;20212;-78
2021/06/28 07:12:47;;;;;;;2.95;1.55;;;17.20;99.90;;;;;;5083158;28;20741;-80
2021/06/28 07:15:16;;;;;;;2.05;1.88;;;17.30;99.90;;;;;;5090196;28;20638;-76
2021/06/28 07:17:43;;;;;;;2.55;1.00;;;17.40;99.90;;;;;;5089752;28;20551;-75
2021/06/28 07:20:13;;;;;;;1.40;0.98;;;17.60;99.90;;;;;;5090256;28;20206;-75
2021/06/28 07:22:40;;;;;;;3.17;1.10;;;17.60;99.90;;;;;;5090727;28;20240;-73
2021/06/28 07:25:09;;;;;;;1.48;0.73;;;17.70;99.90;;;;;;5091213;28;20247;-71
2021/06/28 07:27:42;;;;;;;1.30;1.20;;;17.50;99.90;;;;;;5090339;28;20201;-73
2021/06/28 07:30:11;;;;;;;1.48;1.00;;;17.50;99.90;;;;;;5088031;28;20205;-73
2021/06/28 07:32:39;;;;;;;3.15;0.98;;;17.50;99.90;;;;;;5088761;28;20205;-74
2021/06/28 07:35:07;;;;;;;1.20;1.00;;;17.40;99.90;;;;;;5090236;28;20225;-75
2021/06/28 07:37:34;;;;;;;1.52;1.30;;;17.40;99.90;;;;;;5090568;28;20206;-75
2021/06/28 07:40:01;;;;;;;2.55;1.13;;;17.40;99.90;;;;;;5089599;28;20274;-69
2021/06/28 07:42:28;;;;;;;1.60;0.93;;;17.40;99.90;;;;;;5088334;28;20271;-76
2021/06/28 07:44:57;;;;;;;1.58;1.00;;;17.20;99.90;;;;;;5089536;28;20213;-78
2021/06/28 07:47:25;;;;;;;1.55;0.75;;;17.20;99.90;;;;;;5089706;28;20202;-80
2021/06/28 07:49:52;;;;;;;1.30;1.20;;;17.30;99.90;;;;;;5090105;28;20209;-76
2021/06/28 07:52:19;;;;;;;2.08;1.30;;;17.30;99.90;;;;;;5089946;28;20258;-78
2021/06/28 07:54:46;;;;;;;0.98;0.88;;;17.10;99.90;;;;;;5087142;28;20213;-73
2021/06/28 07:57:13;;;;;;;0.90;0.90;;;17.00;99.90;;;;;;5089148;28;20206;-82
2021/06/28 07:59:40;;;;;;;1.70;1.13;;;17.20;99.90;;;;;;5090399;28;20259;-82
2021/06/28 08:02:09;;;;;;;4.40;1.50;;;17.60;99.90;;;;;;5090307;28;20746;-77
2021/06/28 08:04:36;;;;;;;1.27;1.17;;;18.00;99.90;;;;;;5090366;28;20206;-82
2021/06/28 08:07:04;;;;;;;2.67;1.05;;;18.10;99.90;;;;;;5090047;28;20250;-84
2021/06/28 08:09:31;;;;;;;1.67;1.35;;;18.30;99.90;;;;;;5087856;28;20688;-79
2021/06/28 08:11:59;;;;;;;1.70;1.20;;;18.80;99.90;;;;;;5087529;28;20209;-79
2021/06/28 08:14:25;;;;;;;1.88;1.30;;;19.10;99.90;;;;;;5088740;28;20675;-79
2021/06/28 08:16:53;;;;;;;3.63;1.35;;;19.50;99.90;;;;;;5089821;28;20206;-74
2021/06/28 08:19:21;;;;;;;1.00;1.00;;;19.60;99.90;;;;;;5088835;28;20222;-73
2021/06/28 08:21:48;;;;;;;3.25;1.42;;;19.80;99.90;;;;;;5089276;28;20306;-76
2021/06/28 08:24:16;;;;;;;1.25;1.15;;;20.30;99.90;;;;;;5089059;28;20209;-75
2021/06/28 08:26:44;;;;;;;1.13;1.02;;;20.40;99.90;;;;;;5089470;28;20324;-74
2021/06/28 08:29:11;;;;;;;0.73;0.73;;;20.10;99.90;;;;;;5088511;28;20872;-71
2021/06/28 08:31:39;;;;;;;2.05;1.23;;;19.60;99.90;;;;;;5088310;28;20213;-67
2021/06/28 08:34:06;;;;;;;1.35;1.13;;;19.70;99.90;;;;;;5089749;28;20205;-69
2021/06/28 08:36:35;;;;;;;1.65;1.55;;;20.10;99.90;;;;;;5090234;28;20721;-74
2021/06/28 08:39:03;;;;;;;0.85;0.70;;;20.30;99.90;;;;;;5086445;28;20722;-70
2021/06/28 08:41:30;;;;;;;0.90;0.82;;;20.60;99.90;;;;;;5089920;28;20209;-74
2021/06/28 08:43:57;;;;;;;1.70;1.00;;;20.60;99.90;;;;;;5089644;28;20214;-73
2021/06/28 08:46:24;;;;;;;1.08;1.08;;;20.90;99.90;;;;;;5087766;28;20206;-72
2021/06/28 08:48:51;;;;;;;0.73;0.65;;;20.90;99.90;;;;;;5089186;28;20213;-71
2021/06/28 08:51:20;;;;;;;1.23;1.13;;;21.10;99.90;;;;;;5088890;28;20661;-73
2021/06/28 08:53:53;;;;;;;1.20;1.10;;;21.30;99.90;;;;;;5087873;28;20670;-72
2021/06/28 08:56:20;;;;;;;1.23;1.00;;;20.90;99.90;;;;;;5089789;28;20229;-74
2021/06/28 08:58:47;;;;;;;0.90;0.90;;;20.60;99.90;;;;;;5087801;28;20205;-72
2021/06/28 09:01:14;;;;;;;0.75;0.75;;;20.40;99.90;;;;;;5088913;28;20206;-72
2021/06/28 09:03:41;;;;;;;1.50;0.88;;;21.50;99.90;;;;;;5089156;28;20282;-72
2021/06/28 09:06:10;;;;;;;0.88;0.88;;;21.90;99.90;;;;;;5091002;28;20278;-73
2021/06/28 09:08:38;;;;;;;0.80;0.80;;;22.50;99.90;;;;;;5093743;28;20745;-74
2021/06/28 09:11:17;;;;;;;0.77;0.77;;;23.50;99.90;;;;;;5093234;28;20205;-74
2021/06/28 09:13:47;;;;;;;1.60;0.52;;;22.20;99.90;;;;;;5082344;28;20648;-75
2021/06/28 09:16:19;;;;;;;0.88;0.88;;;21.50;99.90;;;;;;5092975;28;20217;-74
2021/06/28 09:18:55;;;;;;;2.28;1.20;;;21.00;99.90;;;;;;5092570;28;20201;-70
2021/06/28 09:21:27;;;;;;;1.52;1.20;;;21.40;99.90;;;;;;5093172;28;20213;-74
2021/06/28 09:23:55;;;;;;;0.80;0.80;;;21.30;99.90;;;;;;5093069;28;20282;-73
2021/06/28 09:26:28;;;;;;;0.70;0.70;;;21.20;99.90;;;;;;5093222;28;20205;-73
2021/06/28 09:28:57;;;;;;;1.10;1.05;;;22.70;99.90;;;;;;5092900;28;20233;-75
2021/06/28 09:31:33;;;;;;;0.90;0.90;;;23.50;99.90;;;;;;5092442;28;20197;-73
2021/06/28 09:34:15;;;;;;;2.58;1.15;;;23.00;99.90;;;;;;5092179;28;20205;-73
2021/06/28 09:36:54;;;;;;;2.20;1.02;;;23.80;99.90;;;;;;5092183;28;20213;-73
2021/06/28 09:39:27;;;;;;;1.58;1.42;;;23.70;99.90;;;;;;5093141;28;20288;-73
2021/06/28 09:41:59;;;;;;;2.00;1.00;;;23.50;99.90;;;;;;5087977;28;20270;-74
2021/06/28 09:44:29;;;;;;;1.08;1.00;;;23.70;99.90;;;;;;5092743;28;20282;-73
2021/06/28 09:47:11;;;;;;;1.50;1.40;;;23.80;99.90;;;;;;5092171;28;20213;-73
2021/06/28 09:49:39;;;;;;;2.67;0.95;;;23.00;99.90;;;;;;5089053;28;20209;-74
2021/06/28 09:52:07;;;;;;;0.77;0.63;;;22.80;99.90;;;;;;5092766;28;20255;-75
2021/06/28 09:54:35;;;;;;;0.85;0.82;;;22.90;99.90;;;;;;5092796;28;20205;-74
2021/06/28 09:57:07;;;;;;;1.45;1.42;;;23.10;99.90;;;;;;5091972;28;20680;-74
2021/06/28 09:59:36;;;;;;;1.60;0.88;;;24.50;99.90;;;;;;5093001;28;20202;-73
2021/06/28 10:02:22;;;;;;;1.27;1.17;;;28.00;99.90;;;;;;5091604;28;20605;-73
2021/06/28 10:04:58;;;;;;;2.10;1.20;;;26.20;99.90;;;;;;5090475;28;20290;-74
2021/06/28 10:07:31;;;;;;;1.33;1.23;;;25.10;99.90;;;;;;5091794;28;20201;-73
2021/06/28 10:10:22;;;;;;;2.40;1.42;;;27.80;99.90;;;;;;5090391;28;21034;-73
2021/06/28 10:13:04;;;;;;;1.35;1.20;;;27.60;99.90;;;;;;5088255;28;20209;-74
2021/06/28 10:15:33;;;;;;;4.90;1.48;;;25.70;99.90;;;;;;5092051;28;20209;-75
2021/06/28 10:18:00;;;;;;;2.83;1.42;;;26.20;99.90;;;;;;5091837;28;20217;-74
2021/06/28 10:20:30;;;;;;;1.05;1.00;;;26.30;99.90;;;;;;5091257;28;20247;-74
2021/06/28 10:22:58;;;;;;;3.25;1.55;;;29.70;99.90;;;;;;5091201;28;20659;-74
2021/06/28 10:25:27;;;;;;;1.63;1.42;;;29.70;99.90;;;;;;5091638;28;20204;-74
2021/06/28 10:27:56;;;;;;;1.50;1.30;;;29.40;99.90;;;;;;5091616;28;20209;-74
2021/06/28 10:30:25;;;;;;;1.50;1.40;;;33.30;99.90;;;;;;5091336;28;20673;-75
2021/06/28 10:32:58;;;;;;;1.58;1.48;;;35.10;99.90;;;;;;5091604;28;20207;-74
2021/06/28 10:35:28;;;;;;;2.40;1.35;;;35.10;99.90;;;;;;5091407;28;20741;-73
2021/06/28 10:38:02;;;;;;;1.05;1.05;;;36.10;99.90;;;;;;5091266;28;20202;-74
2021/06/28 10:40:43;;;;;;;1.45;1.10;;;28.80;99.90;;;;;;5091457;28;20692;-72
2021/06/28 10:43:25;;;;;;;1.17;1.10;;;25.40;99.90;;;;;;5091110;28;20221;-72
2021/06/28 10:45:52;;;;;;;1.23;1.13;;;24.90;99.90;;;;;;5090857;28;20209;-72
2021/06/28 10:48:21;;;;;;;1.50;1.17;;;25.00;99.90;;;;;;5091049;28;20201;-73
2021/06/28 10:50:51;;;;;;;2.08;1.67;;;24.60;99.90;;;;;;5091141;28;20213;-72
2021/06/28 10:53:19;;;;;;;1.70;1.27;;;24.00;99.90;;;;;;5091283;28;20207;-72
2021/06/28 10:55:47;;;;;;;2.35;1.40;;;23.50;99.90;;;;;;5087898;28;20198;-73
2021/06/28 10:58:33;;;;;;;1.27;1.13;;;23.30;99.90;;;;;;5091008;28;20270;-72
2021/06/28 11:01:11;;;;;;;1.10;0.93;;;23.00;99.90;;;;;;5089064;28;20634;-72
2021/06/28 11:03:38;;;;;;;0.88;0.80;;;22.90;99.90;;;;;;5086367;28;20229;-72
2021/06/28 11:06:21;;;;;;;1.27;1.23;;;23.10;99.90;;;;;;5090624;28;20202;-72
2021/06/28 11:09:02;;;;;;;3.63;1.52;;;23.50;99.90;;;;;;5079283;28;20584;-73
2021/06/28 11:11:55;;;;;;;1.50;1.40;;;23.80;99.90;;;;;;5090635;28;20699;-72
2021/06/28 11:14:43;;;;;;;0.90;0.90;;;23.60;99.90;;;;;;5090370;28;20631;-71
2021/06/28 11:17:11;;;;;;;0.80;0.80;;;23.60;99.90;;;;;;5082220;28;20209;-72
2021/06/28 11:19:58;;;;;;;1.13;1.02;;;23.70;99.90;;;;;;5090092;28;20244;-70
2021/06/28 11:22:38;;;;;;;3.10;1.55;;;23.80;99.90;;;;;;5081893;28;20206;-72
2021/06/28 11:25:14;;;;;;;2.67;1.60;;;23.80;99.90;;;;;;5090794;28;20229;-72
2021/06/28 11:27:43;;;;;;;1.83;1.58;;;23.40;99.90;;;;;;5090263;28;20258;-71
2021/06/28 11:30:23;;;;;;;2.83;1.52;;;23.20;99.90;;;;;;5088901;28;20217;-71
2021/06/28 11:32:59;;;;;;;6.80;2.75;;;23.30;99.90;;;;;;5088990;28;20213;-73
2021/06/28 11:35:38;;;;;;;3.60;1.90;;;23.60;99.90;;;;;;5090663;28;20553;-72
2021/06/28 11:38:24;;;;;;;1.92;1.10;;;23.80;99.90;;;;;;5090014;28;20201;-71
2021/06/28 11:40:55;;;;;;;2.05;1.50;;;23.80;99.90;;;;;;5088691;28;20243;-71
2021/06/28 11:43:39;;;;;;;2.03;1.83;;;23.90;99.90;;;;;;5090460;28;20225;-70
2021/06/28 11:46:09;;;;;;;2.85;1.40;;;24.10;99.90;;;;;;5081511;28;20205;-70
2021/06/28 11:48:38;;;;;;;2.13;0.98;;;24.20;99.90;;;;;;5089650;28;20247;-71
2021/06/28 11:51:14;;;;;;;3.00;1.33;;;23.40;99.90;;;;;;5089877;28;20201;-71
2021/06/28 11:53:42;;;;;;;2.50;1.80;;;22.90;99.90;;;;;;5090286;28;20205;-71
2021/06/28 11:58:55;;;;;;;1.33;0.90;;;23.20;99.90;;;;;;5087007;28;20228;-72
2021/06/28 12:01:25;;;;;;;1.55;1.15;;;23.20;99.90;;;;;;5090057;28;20247;-72
2021/06/28 12:03:52;;;;;;;3.13;1.52;;;23.00;99.90;;;;;;5089792;28;20221;-73
2021/06/28 12:06:19;;;;;;;2.17;1.25;;;23.00;99.90;;;;;;5090363;28;20205;-72
2021/06/28 12:08:46;;;;;;;2.40;1.58;;;23.80;99.90;;;;;;5088138;28;20221;-72
2021/06/28 12:11:13;;;;;;;1.40;1.17;;;24.20;99.90;;;;;;5089477;28;20251;-71
2021/06/28 12:13:43;;;;;;;3.05;1.02;;;24.30;99.90;;;;;;5090276;28;20212;-72
2021/06/28 12:16:20;;;;;;;1.25;1.05;;;24.40;99.90;;;;;;5090135;28;20208;-72
2021/06/28 12:18:49;;;;;;;0.95;0.93;;;24.70;99.90;;;;;;5082631;28;20242;-72
2021/06/28 12:21:32;;;;;;;1.45;1.35;;;24.90;99.90;;;;;;5090151;28;20205;-72
2021/06/28 12:24:04;;;;;;;1.10;1.00;;;24.90;99.90;;;;;;5081945;28;20236;-71
2021/06/28 12:26:31;;;;;;;2.75;1.00;;;25.20;99.90;;;;;;5090088;28;20270;-72
2021/06/28 12:28:58;;;;;;;0.82;0.80;;;25.50;99.90;;;;;;5090018;28;20206;-71
2021/06/28 12:31:25;;;;;;;1.00;1.00;;;25.60;99.90;;;;;;5083531;28;20202;-71
2021/06/28 12:33:56;;;;;;;1.35;1.23;;;25.20;99.90;;;;;;5089717;28;20271;-75
2021/06/28 12:36:23;;;;;;;1.05;0.98;;;25.20;99.90;;;;;;5090100;28;20285;-73
2021/06/28 12:38:59;;;;;;;1.35;0.90;;;24.60;99.90;;;;;;5089554;28;20201;-74
2021/06/28 12:41:26;;;;;;;57.22;4.88;;;25.00;99.90;;;;;;5091322;28;20772;-75
2021/06/28 12:43:54;;;;;;;0.98;0.70;;;25.60;99.90;;;;;;5091569;28;20320;-74
2021/06/28 12:46:21;;;;;;;0.93;0.50;;;25.20;99.90;;;;;;5089674;28;20206;-76
2021/06/28 12:48:49;;;;;;;3.70;1.17;;;24.90;99.90;;;;;;5092900;28;20213;-74
2021/06/28 12:51:21;;;;;;;1.00;0.90;;;25.40;99.90;;;;;;5093962;28;20271;-74
2021/06/28 12:53:49;;;;;;;0.80;0.77;;;25.90;99.90;;;;;;5093094;28;20582;-76
2021/06/28 12:56:18;;;;;;;1.15;1.05;;;25.50;99.90;;;;;;5093640;28;20296;-76
2021/06/28 12:58:46;;;;;;;8.45;7.75;;;25.10;99.90;;;;;;5092744;28;20236;-75
2021/06/28 13:01:31;;;;;;;0.82;0.77;;;24.90;99.90;;;;;;5093558;28;20233;-75